Terre Haute, Indiana
Current Conditions -  °F | °C
As of 5:53 AM on Saturday 25 Oct 2014 (Local Time) from KHUF Reporting Station
Clear Clear  
Wind Chill: 57°   Ceiling: Unl
Heat Index: 57°   Visibility: 10mi
Dew Point: 51°   Wind: 7mph
Humidity: 81%   Direction: 210°SSW
Pressure: 29.96"   Gusts: NA
Location:  39.47°N, 87.41°W
Report Text: KHUF 250953Z 21006KT 10SM CLR 14/11 A2996 RMK AO2 SLP143 T01390106
Loading
Personal Weather Stations






























Interactive Weather Map New forecast layout! Learn more

10-Day Weather Forecast

Advertisements
Track Severe Weather on mobile